sensor_id;sensor_type;location;lat;lon;timestamp;P1;durP1;ratioP1;P2;durP2;ratioP2
73337;SDS011;61575;49.908;35.556;2023-11-21T00:02:49;8.85;;;3.72;;
73337;SDS011;61575;49.908;35.556;2023-11-21T00:05:51;5.87;;;3.20;;
73337;SDS011;61575;49.908;35.556;2023-11-21T00:08:54;8.48;;;3.88;;
73337;SDS011;61575;49.908;35.556;2023-11-21T00:11:56;9.25;;;3.95;;
73337;SDS011;61575;49.908;35.556;2023-11-21T00:14:57;5.90;;;3.00;;
73337;SDS011;61575;49.908;35.556;2023-11-21T00:17:59;6.15;;;3.38;;
73337;SDS011;61575;49.908;35.556;2023-11-21T00:21:01;6.10;;;3.20;;
73337;SDS011;61575;49.908;35.556;2023-11-21T00:24:05;5.07;;;2.60;;
73337;SDS011;61575;49.908;35.556;2023-11-21T00:27:07;6.85;;;3.30;;
73337;SDS011;61575;49.908;35.556;2023-11-21T00:30:09;7.65;;;2.90;;
73337;SDS011;61575;49.908;35.556;2023-11-21T00:33:12;7.90;;;3.35;;
73337;SDS011;61575;49.908;35.556;2023-11-21T00:36:14;8.07;;;3.67;;
73337;SDS011;61575;49.908;35.556;2023-11-21T00:39:16;6.10;;;3.10;;
73337;SDS011;61575;49.908;35.556;2023-11-21T00:42:18;6.57;;;3.10;;
73337;SDS011;61575;49.908;35.556;2023-11-21T00:45:20;5.45;;;2.58;;
73337;SDS011;61575;49.908;35.556;2023-11-21T00:48:22;6.40;;;3.27;;
73337;SDS011;61575;49.908;35.556;2023-11-21T00:51:24;8.88;;;3.45;;
73337;SDS011;61575;49.908;35.556;2023-11-21T00:54:27;10.02;;;4.60;;
73337;SDS011;61575;49.908;35.556;2023-11-21T00:57:29;8.95;;;4.07;;
73337;SDS011;61575;49.908;35.556;2023-11-21T01:00:31;7.57;;;3.50;;
73337;SDS011;61575;49.908;35.556;2023-11-21T01:03:33;9.35;;;3.90;;
73337;SDS011;61575;49.908;35.556;2023-11-21T01:06:35;7.23;;;3.80;;
73337;SDS011;61575;49.908;35.556;2023-11-21T01:09:37;7.25;;;3.63;;
73337;SDS011;61575;49.908;35.556;2023-11-21T01:12:40;9.25;;;4.05;;
73337;SDS011;61575;49.908;35.556;2023-11-21T01:15:43;8.55;;;3.95;;
73337;SDS011;61575;49.908;35.556;2023-11-21T01:18:45;8.73;;;4.18;;
73337;SDS011;61575;49.908;35.556;2023-11-21T01:21:47;8.63;;;4.23;;
73337;SDS011;61575;49.908;35.556;2023-11-21T01:24:49;9.80;;;4.18;;
73337;SDS011;61575;49.908;35.556;2023-11-21T01:27:51;9.85;;;4.70;;
73337;SDS011;61575;49.908;35.556;2023-11-21T01:30:53;10.90;;;5.18;;
73337;SDS011;61575;49.908;35.556;2023-11-21T01:33:58;10.63;;;4.93;;
73337;SDS011;61575;49.908;35.556;2023-11-21T01:37:00;9.03;;;4.73;;
73337;SDS011;61575;49.908;35.556;2023-11-21T01:40:03;13.30;;;5.28;;
73337;SDS011;61575;49.908;35.556;2023-11-21T01:43:10;11.68;;;5.68;;
73337;SDS011;61575;49.908;35.556;2023-11-21T01:46:12;12.02;;;5.50;;
73337;SDS011;61575;49.908;35.556;2023-11-21T01:49:14;11.27;;;5.40;;
73337;SDS011;61575;49.908;35.556;2023-11-21T01:55:19;12.00;;;6.03;;
73337;SDS011;61575;49.908;35.556;2023-11-21T01:58:24;15.80;;;6.40;;
73337;SDS011;61575;49.908;35.556;2023-11-21T02:01:26;16.77;;;7.43;;
73337;SDS011;61575;49.908;35.556;2023-11-21T02:04:28;10.55;;;5.18;;
73337;SDS011;61575;49.908;35.556;2023-11-21T02:07:31;14.30;;;6.63;;
73337;SDS011;61575;49.908;35.556;2023-11-21T02:13:39;13.68;;;6.07;;
73337;SDS011;61575;49.908;35.556;2023-11-21T02:16:45;15.48;;;6.63;;
73337;SDS011;61575;49.908;35.556;2023-11-21T02:19:49;10.93;;;5.88;;
73337;SDS011;61575;49.908;35.556;2023-11-21T02:22:53;14.88;;;6.47;;
73337;SDS011;61575;49.908;35.556;2023-11-21T02:26:00;15.38;;;7.35;;
73337;SDS011;61575;49.908;35.556;2023-11-21T02:29:06;14.98;;;7.15;;
73337;SDS011;61575;49.908;35.556;2023-11-21T02:32:12;13.98;;;7.28;;
73337;SDS011;61575;49.908;35.556;2023-11-21T02:35:14;14.50;;;6.73;;
73337;SDS011;61575;49.908;35.556;2023-11-21T02:38:17;14.25;;;6.55;;
73337;SDS011;61575;49.908;35.556;2023-11-21T02:41:20;14.45;;;7.13;;
73337;SDS011;61575;49.908;35.556;2023-11-21T02:44:22;15.13;;;7.63;;
73337;SDS011;61575;49.908;35.556;2023-11-21T02:47:24;13.00;;;6.37;;
73337;SDS011;61575;49.908;35.556;2023-11-21T02:50:26;17.08;;;7.18;;
73337;SDS011;61575;49.908;35.556;2023-11-21T02:53:29;11.82;;;6.07;;
73337;SDS011;61575;49.908;35.556;2023-11-21T02:56:31;13.50;;;6.65;;
73337;SDS011;61575;49.908;35.556;2023-11-21T02:59:33;14.45;;;6.35;;
73337;SDS011;61575;49.908;35.556;2023-11-21T03:02:35;12.73;;;6.38;;
73337;SDS011;61575;49.908;35.556;2023-11-21T03:05:41;12.93;;;6.43;;
73337;SDS011;61575;49.908;35.556;2023-11-21T03:08:44;14.07;;;5.93;;
73337;SDS011;61575;49.908;35.556;2023-11-21T03:11:46;12.30;;;6.18;;
73337;SDS011;61575;49.908;35.556;2023-11-21T03:14:48;12.43;;;5.90;;
73337;SDS011;61575;49.908;35.556;2023-11-21T03:17:50;13.53;;;5.70;;
73337;SDS011;61575;49.908;35.556;2023-11-21T03:20:52;13.87;;;6.00;;
73337;SDS011;61575;49.908;35.556;2023-11-21T03:23:54;10.67;;;5.10;;
73337;SDS011;61575;49.908;35.556;2023-11-21T03:26:57;11.93;;;5.97;;
73337;SDS011;61575;49.908;35.556;2023-11-21T03:29:59;11.32;;;5.15;;
73337;SDS011;61575;49.908;35.556;2023-11-21T03:33:01;12.40;;;5.75;;
73337;SDS011;61575;49.908;35.556;2023-11-21T03:36:03;13.00;;;6.28;;
73337;SDS011;61575;49.908;35.556;2023-11-21T03:39:06;13.30;;;6.05;;
73337;SDS011;61575;49.908;35.556;2023-11-21T03:42:08;14.32;;;6.55;;
73337;SDS011;61575;49.908;35.556;2023-11-21T03:45:10;13.48;;;6.35;;
73337;SDS011;61575;49.908;35.556;2023-11-21T03:48:14;13.43;;;6.30;;
73337;SDS011;61575;49.908;35.556;2023-11-21T03:51:16;12.43;;;5.90;;
73337;SDS011;61575;49.908;35.556;2023-11-21T03:54:18;13.98;;;6.07;;
73337;SDS011;61575;49.908;35.556;2023-11-21T03:57:20;14.20;;;6.20;;
73337;SDS011;61575;49.908;35.556;2023-11-21T04:00:22;13.88;;;5.97;;
73337;SDS011;61575;49.908;35.556;2023-11-21T04:03:25;12.15;;;5.70;;
73337;SDS011;61575;49.908;35.556;2023-11-21T04:06:27;12.77;;;5.97;;
73337;SDS011;61575;49.908;35.556;2023-11-21T04:09:29;12.98;;;5.55;;
73337;SDS011;61575;49.908;35.556;2023-11-21T04:12:32;9.95;;;4.75;;
73337;SDS011;61575;49.908;35.556;2023-11-21T04:15:33;16.25;;;7.72;;
73337;SDS011;61575;49.908;35.556;2023-11-21T04:18:36;13.63;;;5.90;;
73337;SDS011;61575;49.908;35.556;2023-11-21T04:21:39;16.30;;;7.22;;
73337;SDS011;61575;49.908;35.556;2023-11-21T04:24:41;14.07;;;5.97;;
73337;SDS011;61575;49.908;35.556;2023-11-21T04:27:43;10.50;;;5.50;;
73337;SDS011;61575;49.908;35.556;2023-11-21T04:33:48;13.68;;;5.50;;
73337;SDS011;61575;49.908;35.556;2023-11-21T04:36:50;9.87;;;4.37;;
73337;SDS011;61575;49.908;35.556;2023-11-21T04:39:52;14.40;;;5.60;;
73337;SDS011;61575;49.908;35.556;2023-11-21T04:42:54;12.35;;;5.50;;
73337;SDS011;61575;49.908;35.556;2023-11-21T04:45:56;13.60;;;5.90;;
73337;SDS011;61575;49.908;35.556;2023-11-21T04:48:58;11.15;;;5.25;;
73337;SDS011;61575;49.908;35.556;2023-11-21T04:52:00;10.43;;;5.07;;
73337;SDS011;61575;49.908;35.556;2023-11-21T04:55:03;12.48;;;6.20;;
73337;SDS011;61575;49.908;35.556;2023-11-21T04:58:05;12.18;;;6.38;;
73337;SDS011;61575;49.908;35.556;2023-11-21T05:01:07;14.35;;;7.20;;
73337;SDS011;61575;49.908;35.556;2023-11-21T05:04:10;15.20;;;6.75;;
73337;SDS011;61575;49.908;35.556;2023-11-21T05:07:12;12.53;;;5.77;;
73337;SDS011;61575;49.908;35.556;2023-11-21T05:10:14;17.77;;;7.20;;
73337;SDS011;61575;49.908;35.556;2023-11-21T05:13:16;17.73;;;9.68;;
73337;SDS011;61575;49.908;35.556;2023-11-21T05:16:19;18.13;;;8.13;;
73337;SDS011;61575;49.908;35.556;2023-11-21T05:19:21;16.10;;;7.35;;
73337;SDS011;61575;49.908;35.556;2023-11-21T05:22:24;12.27;;;5.50;;
73337;SDS011;61575;49.908;35.556;2023-11-21T05:25:26;14.13;;;7.45;;
73337;SDS011;61575;49.908;35.556;2023-11-21T05:28:28;15.65;;;7.03;;
73337;SDS011;61575;49.908;35.556;2023-11-21T05:31:30;19.85;;;7.45;;
73337;SDS011;61575;49.908;35.556;2023-11-21T05:34:32;17.63;;;7.57;;
73337;SDS011;61575;49.908;35.556;2023-11-21T05:37:34;15.77;;;7.13;;
73337;SDS011;61575;49.908;35.556;2023-11-21T05:40:36;18.00;;;8.50;;
73337;SDS011;61575;49.908;35.556;2023-11-21T05:43:39;16.73;;;7.43;;
73337;SDS011;61575;49.908;35.556;2023-11-21T05:46:41;17.83;;;7.78;;
73337;SDS011;61575;49.908;35.556;2023-11-21T05:49:45;45.95;;;14.57;;
73337;SDS011;61575;49.908;35.556;2023-11-21T05:52:52;16.38;;;7.72;;
73337;SDS011;61575;49.908;35.556;2023-11-21T05:55:54;15.90;;;6.97;;
73337;SDS011;61575;49.908;35.556;2023-11-21T05:58:56;23.92;;;8.25;;
73337;SDS011;61575;49.908;35.556;2023-11-21T06:01:58;20.83;;;8.20;;
73337;SDS011;61575;49.908;35.556;2023-11-21T06:05:00;17.25;;;8.00;;
73337;SDS011;61575;49.908;35.556;2023-11-21T06:08:03;17.35;;;7.03;;
73337;SDS011;61575;49.908;35.556;2023-11-21T06:11:05;14.70;;;6.20;;
73337;SDS011;61575;49.908;35.556;2023-11-21T06:14:07;15.80;;;7.67;;
73337;SDS011;61575;49.908;35.556;2023-11-21T06:17:11;16.40;;;6.60;;
73337;SDS011;61575;49.908;35.556;2023-11-21T06:20:13;16.85;;;7.50;;
73337;SDS011;61575;49.908;35.556;2023-11-21T06:23:16;16.20;;;6.47;;
73337;SDS011;61575;49.908;35.556;2023-11-21T06:26:18;11.55;;;5.57;;
73337;SDS011;61575;49.908;35.556;2023-11-21T06:29:20;12.25;;;5.85;;
73337;SDS011;61575;49.908;35.556;2023-11-21T06:32:23;11.93;;;5.25;;
73337;SDS011;61575;49.908;35.556;2023-11-21T06:35:25;13.20;;;6.07;;
73337;SDS011;61575;49.908;35.556;2023-11-21T06:38:29;13.95;;;6.60;;
73337;SDS011;61575;49.908;35.556;2023-11-21T06:41:34;10.85;;;5.00;;
73337;SDS011;61575;49.908;35.556;2023-11-21T06:44:36;9.02;;;4.38;;
73337;SDS011;61575;49.908;35.556;2023-11-21T06:50:41;11.52;;;4.93;;
73337;SDS011;61575;49.908;35.556;2023-11-21T06:53:43;11.37;;;5.10;;
73337;SDS011;61575;49.908;35.556;2023-11-21T06:56:46;8.48;;;4.15;;
73337;SDS011;61575;49.908;35.556;2023-11-21T06:59:48;8.75;;;4.10;;
73337;SDS011;61575;49.908;35.556;2023-11-21T07:02:52;7.88;;;3.70;;
73337;SDS011;61575;49.908;35.556;2023-11-21T07:05:54;18.90;;;8.23;;
73337;SDS011;61575;49.908;35.556;2023-11-21T07:08:56;11.32;;;4.45;;
73337;SDS011;61575;49.908;35.556;2023-11-21T07:11:58;17.42;;;8.27;;
73337;SDS011;61575;49.908;35.556;2023-11-21T07:15:01;19.65;;;8.30;;
73337;SDS011;61575;49.908;35.556;2023-11-21T07:18:04;19.83;;;8.75;;
73337;SDS011;61575;49.908;35.556;2023-11-21T07:21:09;13.48;;;6.32;;
73337;SDS011;61575;49.908;35.556;2023-11-21T07:24:13;16.65;;;8.27;;
73337;SDS011;61575;49.908;35.556;2023-11-21T07:27:15;18.33;;;7.43;;
73337;SDS011;61575;49.908;35.556;2023-11-21T07:30:17;19.27;;;7.63;;
73337;SDS011;61575;49.908;35.556;2023-11-21T07:33:20;16.10;;;6.85;;
73337;SDS011;61575;49.908;35.556;2023-11-21T07:36:23;12.48;;;6.03;;
73337;SDS011;61575;49.908;35.556;2023-11-21T07:39:25;12.55;;;5.90;;
73337;SDS011;61575;49.908;35.556;2023-11-21T07:42:27;13.60;;;5.60;;
73337;SDS011;61575;49.908;35.556;2023-11-21T07:45:29;13.05;;;5.65;;
73337;SDS011;61575;49.908;35.556;2023-11-21T07:48:31;10.47;;;4.83;;
73337;SDS011;61575;49.908;35.556;2023-11-21T07:51:34;9.52;;;4.32;;
73337;SDS011;61575;49.908;35.556;2023-11-21T07:54:36;13.53;;;6.17;;
73337;SDS011;61575;49.908;35.556;2023-11-21T07:57:38;10.43;;;4.60;;
73337;SDS011;61575;49.908;35.556;2023-11-21T08:00:40;7.33;;;3.77;;
73337;SDS011;61575;49.908;35.556;2023-11-21T08:03:42;7.38;;;4.03;;
73337;SDS011;61575;49.908;35.556;2023-11-21T08:06:45;7.13;;;3.58;;
73337;SDS011;61575;49.908;35.556;2023-11-21T08:09:47;6.18;;;3.08;;
73337;SDS011;61575;49.908;35.556;2023-11-21T08:12:51;7.35;;;3.88;;
73337;SDS011;61575;49.908;35.556;2023-11-21T08:15:55;8.05;;;3.80;;
73337;SDS011;61575;49.908;35.556;2023-11-21T08:18:58;6.97;;;3.00;;
73337;SDS011;61575;49.908;35.556;2023-11-21T08:22:00;6.13;;;3.28;;
73337;SDS011;61575;49.908;35.556;2023-11-21T08:25:02;6.18;;;3.25;;
73337;SDS011;61575;49.908;35.556;2023-11-21T08:28:06;7.95;;;3.72;;
73337;SDS011;61575;49.908;35.556;2023-11-21T08:31:08;5.90;;;2.67;;
73337;SDS011;61575;49.908;35.556;2023-11-21T08:34:13;10.50;;;3.47;;
73337;SDS011;61575;49.908;35.556;2023-11-21T08:37:17;8.73;;;3.85;;
73337;SDS011;61575;49.908;35.556;2023-11-21T08:40:19;8.48;;;3.42;;
73337;SDS011;61575;49.908;35.556;2023-11-21T08:43:22;5.63;;;2.80;;
73337;SDS011;61575;49.908;35.556;2023-11-21T08:46:26;7.85;;;3.83;;
73337;SDS011;61575;49.908;35.556;2023-11-21T08:49:28;6.50;;;3.17;;
73337;SDS011;61575;49.908;35.556;2023-11-21T08:55:33;11.30;;;3.92;;
73337;SDS011;61575;49.908;35.556;2023-11-21T08:58:39;10.93;;;3.25;;
73337;SDS011;61575;49.908;35.556;2023-11-21T09:01:41;6.70;;;2.77;;
73337;SDS011;61575;49.908;35.556;2023-11-21T09:04:43;6.55;;;3.15;;
73337;SDS011;61575;49.908;35.556;2023-11-21T09:07:48;4.60;;;2.38;;
73337;SDS011;61575;49.908;35.556;2023-11-21T09:10:51;5.00;;;2.37;;
73337;SDS011;61575;49.908;35.556;2023-11-21T09:13:53;4.97;;;2.70;;
73337;SDS011;61575;49.908;35.556;2023-11-21T09:16:55;9.77;;;3.83;;
73337;SDS011;61575;49.908;35.556;2023-11-21T09:19:58;4.05;;;2.15;;
73337;SDS011;61575;49.908;35.556;2023-11-21T09:23:00;5.57;;;2.43;;
73337;SDS011;61575;49.908;35.556;2023-11-21T09:26:02;5.90;;;2.70;;
73337;SDS011;61575;49.908;35.556;2023-11-21T09:29:05;4.90;;;2.00;;
73337;SDS011;61575;49.908;35.556;2023-11-21T09:32:07;5.97;;;2.87;;
73337;SDS011;61575;49.908;35.556;2023-11-21T09:35:10;7.15;;;3.30;;
73337;SDS011;61575;49.908;35.556;2023-11-21T09:38:13;7.43;;;3.20;;
73337;SDS011;61575;49.908;35.556;2023-11-21T09:41:20;5.75;;;2.35;;
73337;SDS011;61575;49.908;35.556;2023-11-21T09:45:13;5.70;;;2.42;;
73337;SDS011;61575;49.908;35.556;2023-11-21T09:48:01;4.97;;;2.53;;
73337;SDS011;61575;49.908;35.556;2023-11-21T09:51:04;4.68;;;2.10;;
73337;SDS011;61575;49.908;35.556;2023-11-21T09:57:10;5.25;;;2.20;;
73337;SDS011;61575;49.908;35.556;2023-11-21T10:00:15;5.60;;;2.78;;
73337;SDS011;61575;49.908;35.556;2023-11-21T10:03:22;6.30;;;2.80;;
73337;SDS011;61575;49.908;35.556;2023-11-21T10:06:26;7.83;;;3.80;;
73337;SDS011;61575;49.908;35.556;2023-11-21T10:09:28;8.35;;;3.60;;
73337;SDS011;61575;49.908;35.556;2023-11-21T10:12:30;6.47;;;3.30;;
73337;SDS011;61575;49.908;35.556;2023-11-21T10:15:34;6.07;;;2.95;;
73337;SDS011;61575;49.908;35.556;2023-11-21T10:18:36;7.30;;;3.40;;
73337;SDS011;61575;49.908;35.556;2023-11-21T10:21:41;7.47;;;3.20;;
73337;SDS011;61575;49.908;35.556;2023-11-21T10:24:43;7.72;;;3.20;;
73337;SDS011;61575;49.908;35.556;2023-11-21T10:27:58;11.45;;;4.20;;
73337;SDS011;61575;49.908;35.556;2023-11-21T10:31:07;7.70;;;3.67;;
73337;SDS011;61575;49.908;35.556;2023-11-21T10:37:20;9.85;;;3.85;;
73337;SDS011;61575;49.908;35.556;2023-11-21T10:40:22;6.83;;;3.57;;
73337;SDS011;61575;49.908;35.556;2023-11-21T10:43:24;6.05;;;3.13;;
73337;SDS011;61575;49.908;35.556;2023-11-21T10:46:27;6.82;;;3.13;;
73337;SDS011;61575;49.908;35.556;2023-11-21T10:49:32;6.00;;;3.10;;
73337;SDS011;61575;49.908;35.556;2023-11-21T10:52:34;6.53;;;3.13;;
73337;SDS011;61575;49.908;35.556;2023-11-21T10:55:38;6.00;;;2.83;;
73337;SDS011;61575;49.908;35.556;2023-11-21T10:58:40;7.22;;;2.92;;
73337;SDS011;61575;49.908;35.556;2023-11-21T11:01:43;4.93;;;2.33;;
73337;SDS011;61575;49.908;35.556;2023-11-21T11:04:48;6.10;;;2.78;;
73337;SDS011;61575;49.908;35.556;2023-11-21T11:07:51;6.40;;;3.13;;
73337;SDS011;61575;49.908;35.556;2023-11-21T11:11:01;7.97;;;3.50;;
73337;SDS011;61575;49.908;35.556;2023-11-21T11:14:03;6.65;;;2.90;;
73337;SDS011;61575;49.908;35.556;2023-11-21T11:17:06;5.77;;;2.83;;
73337;SDS011;61575;49.908;35.556;2023-11-21T11:20:12;5.68;;;2.85;;
73337;SDS011;61575;49.908;35.556;2023-11-21T11:30:24;6.65;;;3.60;;
73337;SDS011;61575;49.908;35.556;2023-11-21T11:37:00;9.75;;;4.68;;
73337;SDS011;61575;49.908;35.556;2023-11-21T11:40:07;7.90;;;3.30;;
73337;SDS011;61575;49.908;35.556;2023-11-21T11:43:12;7.53;;;3.33;;
73337;SDS011;61575;49.908;35.556;2023-11-21T11:46:14;9.35;;;3.83;;
73337;SDS011;61575;49.908;35.556;2023-11-21T11:49:23;11.52;;;4.35;;
73337;SDS011;61575;49.908;35.556;2023-11-21T11:52:43;10.85;;;5.22;;
73337;SDS011;61575;49.908;35.556;2023-11-21T11:55:48;15.57;;;8.68;;
73337;SDS011;61575;49.908;35.556;2023-11-21T11:59:19;9.25;;;4.38;;
73337;SDS011;61575;49.908;35.556;2023-11-21T12:02:23;7.83;;;4.00;;
73337;SDS011;61575;49.908;35.556;2023-11-21T12:05:26;11.13;;;5.03;;
73337;SDS011;61575;49.908;35.556;2023-11-21T12:08:34;9.90;;;4.65;;
73337;SDS011;61575;49.908;35.556;2023-11-21T12:11:38;8.60;;;4.53;;
73337;SDS011;61575;49.908;35.556;2023-11-21T12:14:42;9.32;;;4.43;;
73337;SDS011;61575;49.908;35.556;2023-11-21T12:17:47;9.93;;;5.03;;
73337;SDS011;61575;49.908;35.556;2023-11-21T12:20:50;9.35;;;4.57;;
73337;SDS011;61575;49.908;35.556;2023-11-21T12:23:52;9.65;;;4.82;;
73337;SDS011;61575;49.908;35.556;2023-11-21T12:26:54;9.47;;;4.63;;
73337;SDS011;61575;49.908;35.556;2023-11-21T12:29:57;10.68;;;6.68;;
73337;SDS011;61575;49.908;35.556;2023-11-21T12:32:59;16.17;;;7.05;;
73337;SDS011;61575;49.908;35.556;2023-11-21T12:36:02;34.33;;;17.65;;
73337;SDS011;61575;49.908;35.556;2023-11-21T12:39:07;29.23;;;13.20;;
73337;SDS011;61575;49.908;35.556;2023-11-21T12:42:11;27.05;;;14.43;;
73337;SDS011;61575;49.908;35.556;2023-11-21T12:48:18;18.10;;;7.18;;
73337;SDS011;61575;49.908;35.556;2023-11-21T12:51:26;12.90;;;6.38;;
73337;SDS011;61575;49.908;35.556;2023-11-21T12:54:28;10.60;;;5.50;;
73337;SDS011;61575;49.908;35.556;2023-11-21T12:57:30;8.30;;;4.03;;
73337;SDS011;61575;49.908;35.556;2023-11-21T13:00:36;10.77;;;4.80;;
73337;SDS011;61575;49.908;35.556;2023-11-21T13:03:39;13.45;;;6.35;;
73337;SDS011;61575;49.908;35.556;2023-11-21T13:06:43;12.88;;;5.85;;
73337;SDS011;61575;49.908;35.556;2023-11-21T13:09:45;14.73;;;6.37;;
73337;SDS011;61575;49.908;35.556;2023-11-21T13:12:47;13.57;;;6.00;;
73337;SDS011;61575;49.908;35.556;2023-11-21T13:19:27;17.52;;;5.85;;
73337;SDS011;61575;49.908;35.556;2023-11-21T13:22:32;15.35;;;6.70;;
73337;SDS011;61575;49.908;35.556;2023-11-21T13:25:34;16.10;;;6.90;;
73337;SDS011;61575;49.908;35.556;2023-11-21T13:28:38;19.20;;;8.27;;
73337;SDS011;61575;49.908;35.556;2023-11-21T13:31:43;15.00;;;8.73;;
73337;SDS011;61575;49.908;35.556;2023-11-21T13:34:45;16.20;;;7.43;;
73337;SDS011;61575;49.908;35.556;2023-11-21T13:37:49;10.77;;;6.20;;
73337;SDS011;61575;49.908;35.556;2023-11-21T13:40:53;22.48;;;8.25;;
73337;SDS011;61575;49.908;35.556;2023-11-21T13:43:56;8.80;;;4.53;;
73337;SDS011;61575;49.908;35.556;2023-11-21T13:47:18;12.30;;;5.03;;
73337;SDS011;61575;49.908;35.556;2023-11-21T13:50:20;15.13;;;6.47;;
73337;SDS011;61575;49.908;35.556;2023-11-21T13:53:30;11.95;;;5.35;;
73337;SDS011;61575;49.908;35.556;2023-11-21T13:56:32;13.88;;;6.32;;
73337;SDS011;61575;49.908;35.556;2023-11-21T13:59:34;19.97;;;9.07;;
73337;SDS011;61575;49.908;35.556;2023-11-21T14:02:38;18.65;;;7.82;;
73337;SDS011;61575;49.908;35.556;2023-11-21T14:05:44;22.10;;;8.10;;
73337;SDS011;61575;49.908;35.556;2023-11-21T14:08:50;22.15;;;8.95;;
73337;SDS011;61575;49.908;35.556;2023-11-21T14:11:54;17.30;;;6.40;;
73337;SDS011;61575;49.908;35.556;2023-11-21T14:14:58;17.48;;;9.45;;
73337;SDS011;61575;49.908;35.556;2023-11-21T14:18:00;16.80;;;7.87;;
73337;SDS011;61575;49.908;35.556;2023-11-21T14:21:07;14.55;;;6.63;;
73337;SDS011;61575;49.908;35.556;2023-11-21T14:24:12;19.95;;;9.55;;
73337;SDS011;61575;49.908;35.556;2023-11-21T14:27:14;31.63;;;14.32;;
73337;SDS011;61575;49.908;35.556;2023-11-21T14:30:17;26.33;;;11.80;;
73337;SDS011;61575;49.908;35.556;2023-11-21T14:33:21;20.52;;;10.15;;
73337;SDS011;61575;49.908;35.556;2023-11-21T14:36:23;13.70;;;7.00;;
73337;SDS011;61575;49.908;35.556;2023-11-21T14:39:25;14.05;;;7.05;;
73337;SDS011;61575;49.908;35.556;2023-11-21T14:42:30;13.52;;;6.60;;
73337;SDS011;61575;49.908;35.556;2023-11-21T14:45:32;13.38;;;6.63;;
73337;SDS011;61575;49.908;35.556;2023-11-21T14:48:37;13.23;;;6.75;;
73337;SDS011;61575;49.908;35.556;2023-11-21T14:51:44;11.07;;;5.72;;
73337;SDS011;61575;49.908;35.556;2023-11-21T14:55:07;8.80;;;5.03;;
73337;SDS011;61575;49.908;35.556;2023-11-21T14:58:33;13.23;;;6.38;;
73337;SDS011;61575;49.908;35.556;2023-11-21T15:04:54;12.52;;;6.22;;
73337;SDS011;61575;49.908;35.556;2023-11-21T15:08:04;13.43;;;6.93;;
73337;SDS011;61575;49.908;35.556;2023-11-21T15:11:31;16.58;;;7.07;;
73337;SDS011;61575;49.908;35.556;2023-11-21T15:14:34;15.07;;;7.70;;
73337;SDS011;61575;49.908;35.556;2023-11-21T15:17:37;14.98;;;6.88;;
73337;SDS011;61575;49.908;35.556;2023-11-21T15:20:41;24.60;;;9.73;;
73337;SDS011;61575;49.908;35.556;2023-11-21T15:23:43;18.67;;;9.13;;
73337;SDS011;61575;49.908;35.556;2023-11-21T15:26:46;13.93;;;7.45;;
73337;SDS011;61575;49.908;35.556;2023-11-21T15:29:48;13.43;;;7.20;;
73337;SDS011;61575;49.908;35.556;2023-11-21T15:32:51;14.80;;;6.53;;
73337;SDS011;61575;49.908;35.556;2023-11-21T15:35:55;11.55;;;5.40;;
73337;SDS011;61575;49.908;35.556;2023-11-21T15:38:57;10.07;;;4.57;;
73337;SDS011;61575;49.908;35.556;2023-11-21T15:41:59;17.33;;;7.78;;
73337;SDS011;61575;49.908;35.556;2023-11-21T15:45:02;16.87;;;8.13;;
73337;SDS011;61575;49.908;35.556;2023-11-21T15:48:06;15.43;;;7.20;;
73337;SDS011;61575;49.908;35.556;2023-11-21T15:51:08;21.30;;;10.20;;
73337;SDS011;61575;49.908;35.556;2023-11-21T15:54:14;21.85;;;10.55;;
73337;SDS011;61575;49.908;35.556;2023-11-21T15:57:16;15.37;;;8.40;;
73337;SDS011;61575;49.908;35.556;2023-11-21T16:00:18;13.77;;;6.47;;
73337;SDS011;61575;49.908;35.556;2023-11-21T16:03:23;13.10;;;6.22;;
73337;SDS011;61575;49.908;35.556;2023-11-21T16:06:25;16.85;;;6.85;;
73337;SDS011;61575;49.908;35.556;2023-11-21T16:09:29;13.20;;;5.78;;
73337;SDS011;61575;49.908;35.556;2023-11-21T16:12:33;9.93;;;4.50;;
73337;SDS011;61575;49.908;35.556;2023-11-21T16:15:35;11.82;;;4.82;;
73337;SDS011;61575;49.908;35.556;2023-11-21T16:18:37;9.47;;;4.00;;
73337;SDS011;61575;49.908;35.556;2023-11-21T16:21:39;9.88;;;4.05;;
73337;SDS011;61575;49.908;35.556;2023-11-21T16:24:41;9.90;;;4.63;;
73337;SDS011;61575;49.908;35.556;2023-11-21T16:27:44;15.38;;;5.40;;
73337;SDS011;61575;49.908;35.556;2023-11-21T16:30:46;12.57;;;6.03;;
73337;SDS011;61575;49.908;35.556;2023-11-21T16:33:48;11.85;;;5.32;;
73337;SDS011;61575;49.908;35.556;2023-11-21T16:36:50;12.33;;;5.93;;
73337;SDS011;61575;49.908;35.556;2023-11-21T16:39:52;9.43;;;4.28;;
73337;SDS011;61575;49.908;35.556;2023-11-21T16:42:54;10.68;;;4.78;;
73337;SDS011;61575;49.908;35.556;2023-11-21T16:45:56;13.60;;;4.97;;
73337;SDS011;61575;49.908;35.556;2023-11-21T16:48:58;10.97;;;4.43;;
73337;SDS011;61575;49.908;35.556;2023-11-21T16:52:01;13.50;;;5.07;;
73337;SDS011;61575;49.908;35.556;2023-11-21T16:55:04;12.82;;;6.32;;
73337;SDS011;61575;49.908;35.556;2023-11-21T16:58:06;14.23;;;7.68;;
73337;SDS011;61575;49.908;35.556;2023-11-21T17:01:08;14.03;;;6.93;;
73337;SDS011;61575;49.908;35.556;2023-11-21T17:04:10;11.07;;;5.43;;
73337;SDS011;61575;49.908;35.556;2023-11-21T17:07:16;7.47;;;3.67;;
73337;SDS011;61575;49.908;35.556;2023-11-21T17:10:23;9.35;;;4.90;;
73337;SDS011;61575;49.908;35.556;2023-11-21T17:13:25;11.53;;;5.30;;
73337;SDS011;61575;49.908;35.556;2023-11-21T17:16:27;10.02;;;4.60;;
73337;SDS011;61575;49.908;35.556;2023-11-21T17:19:29;8.98;;;4.63;;
73337;SDS011;61575;49.908;35.556;2023-11-21T17:22:33;11.85;;;4.45;;
73337;SDS011;61575;49.908;35.556;2023-11-21T17:25:36;13.85;;;5.95;;
73337;SDS011;61575;49.908;35.556;2023-11-21T17:28:38;11.38;;;5.55;;
73337;SDS011;61575;49.908;35.556;2023-11-21T17:31:40;12.20;;;5.25;;
73337;SDS011;61575;49.908;35.556;2023-11-21T17:34:44;12.23;;;5.25;;
73337;SDS011;61575;49.908;35.556;2023-11-21T17:37:47;12.03;;;4.90;;
73337;SDS011;61575;49.908;35.556;2023-11-21T17:40:49;27.45;;;8.70;;
73337;SDS011;61575;49.908;35.556;2023-11-21T17:43:51;14.83;;;5.37;;
73337;SDS011;61575;49.908;35.556;2023-11-21T17:46:53;31.17;;;10.40;;
73337;SDS011;61575;49.908;35.556;2023-11-21T17:49:55;26.57;;;9.57;;
73337;SDS011;61575;49.908;35.556;2023-11-21T17:52:57;35.47;;;11.45;;
73337;SDS011;61575;49.908;35.556;2023-11-21T17:56:03;23.60;;;8.20;;
73337;SDS011;61575;49.908;35.556;2023-11-21T17:59:05;35.63;;;12.30;;
73337;SDS011;61575;49.908;35.556;2023-11-21T18:02:10;28.52;;;11.15;;
73337;SDS011;61575;49.908;35.556;2023-11-21T18:05:13;29.33;;;11.73;;
73337;SDS011;61575;49.908;35.556;2023-11-21T18:08:15;35.17;;;12.90;;
73337;SDS011;61575;49.908;35.556;2023-11-21T18:11:17;20.07;;;9.10;;
73337;SDS011;61575;49.908;35.556;2023-11-21T18:14:19;15.38;;;6.60;;
73337;SDS011;61575;49.908;35.556;2023-11-21T18:17:21;28.43;;;10.63;;
73337;SDS011;61575;49.908;35.556;2023-11-21T18:20:24;50.78;;;15.57;;
73337;SDS011;61575;49.908;35.556;2023-11-21T18:23:26;41.10;;;13.10;;
73337;SDS011;61575;49.908;35.556;2023-11-21T18:26:28;29.08;;;10.10;;
73337;SDS011;61575;49.908;35.556;2023-11-21T18:29:31;16.17;;;6.63;;
73337;SDS011;61575;49.908;35.556;2023-11-21T18:32:33;12.93;;;6.07;;
73337;SDS011;61575;49.908;35.556;2023-11-21T18:35:36;11.73;;;5.95;;
73337;SDS011;61575;49.908;35.556;2023-11-21T18:38:38;15.32;;;6.88;;
73337;SDS011;61575;49.908;35.556;2023-11-21T18:41:40;6.85;;;3.72;;